Terminal Aerodrome Forecast
Issued by NWS

Home | Current Version | Previous Version | Text Only | Print | Product List | Glossary On
Versions: 1 2 3 4 5 6 7 8 9 10 11 12 13 14 15 16 17 18 19 20 21 22 23 24 25
000
FTUS46 KOTX 030535
TAFSFF
TAF
KSFF 030535Z 0306/0406 24013G20KT P6SM -SHRA VCTS SCT080CB BKN150
     FM030800 23010G17KT P6SM VCSH SCT040 BKN080
     FM031100 22011G17KT P6SM -SHRA BKN035 OVC050
      TEMPO 0312/0315 -SHRA BKN020 OVC035
     FM031800 29005KT P6SM -SHRA BKN050 OVC080
     FM040200 03002KT P6SM SCT060 BKN120=

USA.gov is the U.S. government's official web portal to all federal, state and local government web resources and services.